Autoprogress — CQQF — position and weather

sailwx.info

Track history (hours):
 
Tides and Currents Weather Stations Pressure Air Temp Water Temp Dewpoint Dewpoint Depression Visibility Wind Speed Wind Dir Waves Ship Positions

Autoprogress

Last reported at 2017-Nov-19 15:47 UTC. Time now 2017-Nov-19 16:02 UTC.
Position N 50°16' W 000°14'.

Length 125 m; draft 5.9 m.

Type: Cargo ship. MMSI: 255801570.

Date/timePositionNaut miles runAvg speedWind from/ knotsBaromVisibWave heightAir tempDewpointWater temp
2017-Nov-19 15:47N 50°16' W 000°14'414.5
2017-Nov-19 15:30N 50°15' W 000°20'1810.8
2017-Nov-19 13:52N 50°11' W 000°47'410.6
2017-Nov-19 13:30N 50°10' W 000°53'510.8
2017-Nov-19 13:00N 50°08' W 001°00'611.2
2017-Nov-19 12:31N 50°06' W 001°09'611.9
2017-Nov-19 12:00N 50°05' W 001°18'612.6
2017-Nov-19 11:30N 50°03' W 001°27'713.5
2017-Nov-19 11:01N 50°01' W 001°37'714.1
2017-Nov-19 10:30N 49°59' W 001°48'714.2
2017-Nov-19 10:01N 49°57' W 001°59'815.0
2017-Nov-19 09:30N 49°57' W 002°10'10115.1
2017-Nov-19 02:50N 49°11' W 004°29'514.7
2017-Nov-19 02:30N 49°08' W 004°35'814.7
2017-Nov-19 01:55N 49°04' W 004°46'714.5
2017-Nov-19 01:28N 49°01' W 004°55'714.1
2017-Nov-19 00:59N 48°57' W 005°05'713.7
2017-Nov-19 00:30N 48°54' W 005°13'713.2
2017-Nov-19 00:00N 48°51' W 005°22'712.8
2017-Nov-18 23:28N 48°47' W 005°31'612.5
2017-Nov-18 23:00N 48°44' W 005°37'612.5
2017-Nov-18 22:30N 48°38' W 005°42'611.8
2017-Nov-18 22:00N 48°32' W 005°42'712.4
2017-Nov-18 21:29N 48°26' W 005°38'612.4
2017-Nov-18 21:00N 48°21' W 005°34'612.0
2017-Nov-18 20:30N 48°16' W 005°30'612.0
2017-Nov-18 20:00N 48°10' W 005°26'612.0
2017-Nov-18 19:29N 48°05' W 005°22'611.9
2017-Nov-18 19:00N 47°60' W 005°18'611.8
2017-Nov-18 18:30N 47°54' W 005°13'612.1
2017-Nov-18 18:00N 47°49' W 005°09'612.5
2017-Nov-18 17:31N 47°44' W 005°04'612.6
2017-Nov-18 17:00N 47°38' W 005°00'712.9
2017-Nov-18 16:28N 47°32' W 004°56'612.9
2017-Nov-18 16:00N 47°27' W 004°51'713.2
2017-Nov-18 15:31N 47°21' W 004°47'713.4
2017-Nov-18 15:00N 47°15' W 004°43'613.3
2017-Nov-18 14:31N 47°09' W 004°38'713.6
2017-Nov-18 14:00N 47°03' W 004°33'713.4
2017-Nov-18 13:30N 46°57' W 004°28'612.2
2017-Nov-18 13:00N 46°52' W 004°24'914.2
2017-Nov-18 12:24N 46°44' W 004°19'513.4
2017-Nov-18 12:00N 46°39' W 004°16'712.8
2017-Nov-18 11:26N 46°33' W 004°12'814.7
2017-Nov-18 10:55N 46°26' W 004°07'714.2
2017-Nov-18 10:24N 46°19' W 004°03'1114.2
2017-Nov-18 09:37N 46°09' W 003°55'314.4
2017-Nov-18 09:25N 46°06' W 003°54'714.3
2017-Nov-18 08:55N 46°00' W 003°49'8413.3
2017-Nov-18 02:37N 44°45' W 002°56'513.4
2017-Nov-18 02:16N 44°41' W 002°53'1013.6
2017-Nov-18 01:33N 44°32' W 002°47'113.6
2017-Nov-18 01:30N 44°32' W 002°47'713.6
2017-Nov-18 01:00N 44°26' W 002°43'713.4
2017-Nov-18 00:30N 44°20' W 002°38'713.2
2017-Nov-18 00:00N 44°14' W 002°34'713.2
2017-Nov-17 23:30N 44°08' W 002°30'713.2
2017-Nov-17 23:00N 44°02' W 002°26'713.5
2017-Nov-17 22:30N 43°56' W 002°21'713.4
2017-Nov-17 22:00N 43°50' W 002°17'713.2
2017-Nov-17 21:30N 43°44' W 002°13'713.5
2017-Nov-17 21:00N 43°38' W 002°08'713.4
2017-Nov-17 20:30N 43°32' W 002°04'612.9
2017-Nov-17 20:00N 43°27' W 001°60'612.7
2017-Nov-17 19:30N 43°21' W 001°56'2 4.0
2017-Nov-17 18:58N 43°19' W 001°54'0 0.0
2017-Nov-17 18:28N 43°19' W 001°54'0 0.0
2017-Nov-17 17:58N 43°19' W 001°54'0 0.0
2017-Nov-17 17:28N 43°19' W 001°54'0 0.0
2017-Nov-17 16:58N 43°19' W 001°54'0 0.0
2017-Nov-17 16:28N 43°19' W 001°54'0 0.0
2017-Nov-17 15:58N 43°19' W 001°54'0 0.0
2017-Nov-17 15:28N 43°19' W 001°54'0 0.0
2017-Nov-17 14:58N 43°19' W 001°54'0 0.0
2017-Nov-17 14:28N 43°19' W 001°54'0 0.0
2017-Nov-17 13:58N 43°19' W 001°54'0 0.0
2017-Nov-17 13:28N 43°19' W 001°54'0 0.0
2017-Nov-17 12:58N 43°19' W 001°54'0 0.0
2017-Nov-17 12:28N 43°19' W 001°54'0 0.0
2017-Nov-17 11:58N 43°19' W 001°54'0 0.0
2017-Nov-17 11:30N 43°19' W 001°54'1 1.2
2017-Nov-17 11:00N 43°19' W 001°55'510.7
2017-Nov-17 10:30N 43°24' W 001°58'917.0
2017-Nov-17 10:00N 43°31' W 002°04'917.1
2017-Nov-17 09:30N 43°39' W 002°09'816.4
2017-Nov-17 09:00N 43°46' W 002°14'816.4
2017-Nov-17 08:30N 43°54' W 002°20'815.9
2017-Nov-17 08:00N 44°01' W 002°25'815.5
2017-Nov-17 07:30N 44°08' W 002°30'815.4
2017-Nov-17 07:00N 44°14' W 002°35'815.2
2017-Nov-17 06:30N 44°21' W 002°40'815.6
2017-Nov-17 06:01N 44°28' W 002°45'815.9
2017-Nov-17 05:30N 44°35' W 002°51'816.0
2017-Nov-17 05:00N 44°42' W 002°56'15315.6
2017-Nov-16 19:12N 46°57' W 004°38'815.4
2017-Nov-16 18:43N 47°04' W 004°43'315.3
2017-Nov-16 18:30N 47°07' W 004°45'915.3
2017-Nov-16 17:53N 47°15' W 004°53'615.6
2017-Nov-16 17:30N 47°20' W 004°57'815.7
2017-Nov-16 17:01N 47°27' W 005°02'915.9
2017-Nov-16 16:28N 47°35' W 005°08'816.0
2017-Nov-16 16:00N 47°41' W 005°13'815.8
2017-Nov-16 15:30N 47°48' W 005°18'916.1
2017-Nov-16 14:58N 47°56' W 005°23'916.2
2017-Nov-16 14:26N 48°04' W 005°29'715.7
2017-Nov-16 14:00N 48°10' W 005°33'915.5
2017-Nov-16 13:25N 48°18' W 005°39'1115.3
2017-Nov-16 12:43N 48°28' W 005°47'2513.6
2017-Nov-16 10:54N 48°52' W 005°46'2916.9
2017-Nov-16 09:09N 49°09' W 005°09'2817.7
2017-Nov-16 07:35N 49°23' W 004°31'317.8
2017-Nov-16 07:24N 49°24' W 004°27'2717.3
2017-Nov-16 05:51N 49°38' W 003°51'617.6
2017-Nov-16 05:30N 49°41' W 003°43'917.3
2017-Nov-16 04:59N 49°45' W 003°31'817.1
2017-Nov-16 04:30N 49°49' W 003°20'917.1
2017-Nov-16 04:00N 49°53' W 003°09'917.4
2017-Nov-16 03:31N 49°57' W 002°57'917.9
2017-Nov-16 02:59N 49°60' W 002°43'2318.8
2017-Nov-16 01:45N 50°01' W 002°07'520.4
2017-Nov-16 01:30N 49°59' W 001°60'1020.9
2017-Nov-16 01:00N 49°55' W 001°45'1121.5
2017-Nov-16 00:30N 49°51' W 001°29'1122.2
2017-Nov-16 00:00N 49°47' W 001°13'1121.5
2017-Nov-15 23:30N 49°44' W 000°57'1020.6
2017-Nov-15 23:00N 49°40' W 000°43'1019.9
2017-Nov-15 22:30N 49°36' W 000°28'1019.3
2017-Nov-15 22:00N 49°33' W 000°14'918.7
2017-Nov-15 21:30N 49°30' W 000°00'713.1
2017-Nov-15 21:00N 49°28' E 000°09'1 1.7
2017-Nov-15 20:30N 49°29' E 000°10'1 2.0
2017-Nov-15 19:58N 49°28' E 000°12'0 0.0
2017-Nov-15 19:28N 49°28' E 000°12'0 0.0
2017-Nov-15 19:00N 49°28' E 000°12'0 0.0
2017-Nov-15 18:30N 49°28' E 000°12'0 0.0
2017-Nov-15 18:01N 49°28' E 000°12'0 0.0
2017-Nov-15 17:30N 49°28' E 000°12'0 0.0
2017-Nov-15 17:00N 49°28' E 000°12'0 0.0
2017-Nov-15 16:30N 49°28' E 000°12'0 0.0
2017-Nov-15 16:00N 49°28' E 000°12'0 0.0
2017-Nov-15 15:31N 49°28' E 000°12'0 0.0
2017-Nov-15 15:00N 49°28' E 000°12'0 0.0
2017-Nov-15 14:30N 49°28' E 000°12'0 0.0
2017-Nov-15 14:00N 49°28' E 000°12'1 2.1
2017-Nov-15 13:30N 49°29' E 000°10'0 0.0
2017-Nov-15 13:00N 49°29' E 000°10'0 0.3
2017-Nov-15 12:30N 49°28' E 000°10'4 8.1
2017-Nov-15 12:01N 49°29' E 000°04'714.2
2017-Nov-15 11:30N 49°32' W 000°06'5 9.5
2017-Nov-15 11:00N 49°36' W 000°10'4 8.6
2017-Nov-15 10:30N 49°39' W 000°14'4 8.9
2017-Nov-15 10:00N 49°43' W 000°17'4 7.7
2017-Nov-15 09:30N 49°46' W 000°21'4 8.0
2017-Nov-15 09:00N 49°50' W 000°23'611.0
2017-Nov-15 08:30N 49°55' W 000°27'713.5
2017-Nov-15 08:00N 50°01' W 000°31'2413.4
2017-Nov-15 06:14N 50°23' W 000°47'313.2
2017-Nov-15 06:00N 50°25' W 000°49'713.4
2017-Nov-15 05:30N 50°31' W 000°54'713.3
2017-Nov-15 05:00N 50°37' W 000°58'612.6
2017-Nov-15 04:31N 50°43' W 001°03'714.8
2017-Nov-15 04:00N 50°46' W 001°13'612.4
2017-Nov-15 03:31N 50°51' W 001°20'5 6.1
2017-Nov-15 02:40N 50°54' W 001°26'0 0.0
2017-Nov-15 02:13N 50°54' W 001°26'0 0.0
2017-Nov-15 00:58N 50°54' W 001°26'0 0.0
2017-Nov-15 00:19N 50°54' W 001°26'0 0.0
2017-Nov-15 00:00N 50°54' W 001°26'0 0.0
2017-Nov-14 23:30N 50°54' W 001°26'0 0.0
2017-Nov-14 23:00N 50°54' W 001°26'0 0.0
2017-Nov-14 22:30N 50°54' W 001°26'0 0.0
2017-Nov-14 22:00N 50°54' W 001°26'0 0.0
2017-Nov-14 21:30N 50°54' W 001°26'0 0.0
2017-Nov-14 20:59N 50°54' W 001°26'0 0.2
2017-Nov-14 20:29N 50°54' W 001°25'1 1.8
2017-Nov-14 19:42N 50°53' W 001°24'0 0.0
2017-Nov-14 19:30N 50°53' W 001°24'0 0.0
2017-Nov-14 18:23N 50°53' W 001°24'0 0.0
2017-Nov-14 18:00N 50°53' W 001°24'0 0.0
2017-Nov-14 17:27N 50°53' W 001°24'0 0.7
2017-Nov-14 16:59N 50°53' W 001°24'510.9
2017-Nov-14 16:30N 50°49' W 001°18'713.8
2017-Nov-14 16:00N 50°46' W 001°09'713.4
2017-Nov-14 15:30N 50°43' W 000°59'714.8
2017-Nov-14 15:01N 50°39' W 000°49'816.6
2017-Nov-14 14:31N 50°37' W 000°37'917.6
2017-Nov-14 14:01N 50°35' W 000°23'918.2
2017-Nov-14 13:31N 50°33' W 000°09'918.3
2017-Nov-14 13:01N 50°34' E 000°05'918.6
2017-Nov-14 12:31N 50°36' E 000°20'918.5
2017-Nov-14 12:01N 50°38' E 000°34'918.1
2017-Nov-14 11:31N 50°43' E 000°46'917.7
2017-Nov-14 11:00N 50°49' E 000°57'917.0
2017-Nov-14 10:30N 50°54' E 001°07'816.3
2017-Nov-14 10:01N 50°59' E 001°17'815.6
2017-Nov-14 09:31N 51°04' E 001°27'815.2
2017-Nov-14 09:01N 51°08' E 001°37'815.4
2017-Nov-14 08:31N 51°13' E 001°46'816.5
2017-Nov-14 08:01N 51°20' E 001°54'815.1
2017-Nov-14 07:31N 51°24' E 002°04'917.3
2017-Nov-14 07:00N 51°20' E 002°17'917.9
2017-Nov-14 06:30N 51°23' E 002°31'917.5
2017-Nov-14 06:00N 51°22' E 002°44'611.4
2017-Nov-14 05:30N 51°23' E 002°54'917.9
2017-Nov-14 05:00N 51°24' E 003°08'510.0
2017-Nov-14 04:30N 51°20' E 003°13'0 0.0
2017-Nov-14 04:01N 51°20' E 003°13'0 0.0
2017-Nov-14 03:30N 51°20' E 003°13'1 1.1
2017-Nov-14 03:01N 51°19' E 003°13'0 0.1
2017-Nov-14 02:29N 51°20' E 003°13'0 0.0
2017-Nov-14 01:59N 51°20' E 003°13'0 0.0
2017-Nov-14 01:29N 51°20' E 003°13'0 0.0
2017-Nov-14 00:59N 51°19' E 003°13'0 0.0
2017-Nov-14 00:29N 51°20' E 003°13'0 0.0
2017-Nov-13 23:59N 51°20' E 003°13'0 0.0
2017-Nov-13 23:29N 51°19' E 003°13'0 0.0
2017-Nov-13 22:59N 51°19' E 003°13'0 0.0
2017-Nov-13 22:29N 51°20' E 003°13'0 0.0
2017-Nov-13 21:59N 51°20' E 003°13'132 6.6
2017-Nov-13 02:00N 50°19' E 000°07'611.7
2017-Nov-13 01:30N 50°17' W 000°02'611.5
2017-Nov-13 01:00N 50°16' W 000°10'611.3
2017-Nov-13 00:30N 50°15' W 000°19'611.1
2017-Nov-12 23:58N 50°13' W 000°28'510.9
2017-Nov-12 23:30N 50°12' W 000°36'610.7
2017-Nov-12 22:59N 50°10' W 000°44'166 8.5
2017-Nov-12 03:29N 49°06' W 004°41'4 8.1
2017-Nov-12 03:00N 49°03' W 004°46'14 8.5
2017-Nov-12 01:23N 48°58' W 005°05'3 8.8
2017-Nov-12 01:00N 48°56' W 005°09'610.4
2017-Nov-12 00:24N 48°53' W 005°18'513.0
2017-Nov-12 00:00N 48°50' W 005°25'713.2
2017-Nov-11 23:26N 48°46' W 005°34'812.9
2017-Nov-11 22:47N 48°39' W 005°41'413.4
2017-Nov-11 22:31N 48°36' W 005°43'611.4
2017-Nov-11 21:57N 48°30' W 005°40'511.8
2017-Nov-11 21:31N 48°25' W 005°37'611.1
2017-Nov-11 20:58N 48°20' W 005°33'4 9.6
2017-Nov-11 20:29N 48°16' W 005°30'5 9.1
2017-Nov-11 19:59N 48°12' W 005°26'5 9.7
2017-Nov-11 19:30N 48°08' W 005°23'5 9.5
2017-Nov-11 19:00N 48°03' W 005°20'5 9.5
2017-Nov-11 18:30N 47°59' W 005°16'5 9.2
2017-Nov-11 18:01N 47°55' W 005°13'5 9.4
2017-Nov-11 17:30N 47°51' W 005°10'4 9.2
2017-Nov-11 17:00N 47°47' W 005°07'4 8.9
2017-Nov-11 16:31N 47°43' W 005°04'5 9.0
2017-Nov-11 15:59N 47°39' W 005°02'5 8.6
2017-Nov-11 15:27N 47°34' W 004°59'12 8.8
2017-Nov-11 14:06N 47°24' W 004°51'1 8.5
2017-Nov-11 13:56N 47°22' W 004°50'6 8.9
2017-Nov-11 13:13N 47°17' W 004°46'3 9.3
2017-Nov-11 12:56N 47°14' W 004°44'3011.4
2017-Nov-11 10:15N 46°47' W 004°24'614.7
2017-Nov-11 09:51N 46°42' W 004°19'14415.4
2017-Nov-11 00:30N 44°33' W 002°47'815.9
2017-Nov-11 00:00N 44°26' W 002°41'816.0
2017-Nov-10 23:30N 44°19' W 002°36'815.8
2017-Nov-10 23:00N 44°12' W 002°31'815.8
2017-Nov-10 22:30N 44°05' W 002°27'815.7
2017-Nov-10 22:00N 43°58' W 002°22'815.5
2017-Nov-10 21:30N 43°51' W 002°17'815.4
2017-Nov-10 21:00N 43°44' W 002°12'815.4
2017-Nov-10 20:30N 43°37' W 002°08'815.4
2017-Nov-10 20:00N 43°30' W 002°02'815.5
2017-Nov-10 19:30N 43°24' W 001°57'5 9.7
2017-Nov-10 19:00N 43°19' W 001°54'0 0.3
2017-Nov-10 18:28N 43°19' W 001°54'0 0.0
2017-Nov-10 17:58N 43°19' W 001°54'0 0.0
2017-Nov-10 17:25N 43°19' W 001°54'0 0.0
2017-Nov-10 16:58N 43°19' W 001°54'0 0.0
2017-Nov-10 16:28N 43°19' W 001°54'0 0.0
2017-Nov-10 15:58N 43°19' W 001°54'0 0.0
2017-Nov-10 15:28N 43°19' W 001°54'0 0.0
2017-Nov-10 14:58N 43°19' W 001°54'0 0.0
2017-Nov-10 14:28N 43°19' W 001°54'0 0.0
2017-Nov-10 13:58N 43°19' W 001°54'0 0.0
2017-Nov-10 13:19N 43°19' W 001°54'0 0.0
2017-Nov-10 12:58N 43°19' W 001°54'0 0.0
2017-Nov-10 12:28N 43°19' W 001°54'0 0.0
2017-Nov-10 11:58N 43°19' W 001°54'0 0.0
2017-Nov-10 11:30N 43°19' W 001°54'1 2.8
2017-Nov-10 11:00N 43°20' W 001°56'510.3
2017-Nov-10 10:30N 43°25' W 001°59'611.9
2017-Nov-10 10:00N 43°30' W 002°02'612.6
2017-Nov-10 09:30N 43°36' W 002°06'612.9
2017-Nov-10 09:00N 43°41' W 002°10'613.0
2017-Nov-10 08:30N 43°47' W 002°15'612.9
2017-Nov-10 08:00N 43°53' W 002°19'612.8
2017-Nov-10 07:30N 43°58' W 002°23'612.8
2017-Nov-10 07:00N 44°04' W 002°28'612.7
2017-Nov-10 06:30N 44°10' W 002°32'613.0
2017-Nov-10 06:00N 44°15' W 002°36'612.4
2017-Nov-10 05:30N 44°21' W 002°40'713.4
2017-Nov-10 05:00N 44°27' W 002°44'  
Track history (hours):
 
Tides and Currents Weather Stations Pressure Air Temp Water Temp Dewpoint Dewpoint Depression Visibility Wind Speed Wind Dir Waves Ship Positions

Autoprogress

Last reported at 2017-Nov-19 15:47 UTC. Time now 2017-Nov-19 16:02 UTC.
Position N 50°16' W 000°14'.

Length 125 m; draft 5.9 m.

Type: Cargo ship. MMSI: 255801570.

Date/timePositionNaut miles runAvg speedWind from/ knotsBaromVisibWave heightAir tempDewpointWater temp
2017-Nov-19 15:47N 50°16' W 000°14'414.5
2017-Nov-19 15:30N 50°15' W 000°20'1810.8
2017-Nov-19 13:52N 50°11' W 000°47'410.6
2017-Nov-19 13:30N 50°10' W 000°53'510.8
2017-Nov-19 13:00N 50°08' W 001°00'611.2
2017-Nov-19 12:31N 50°06' W 001°09'611.9
2017-Nov-19 12:00N 50°05' W 001°18'612.6
2017-Nov-19 11:30N 50°03' W 001°27'713.5
2017-Nov-19 11:01N 50°01' W 001°37'714.1
2017-Nov-19 10:30N 49°59' W 001°48'714.2
2017-Nov-19 10:01N 49°57' W 001°59'815.0
2017-Nov-19 09:30N 49°57' W 002°10'10115.1
2017-Nov-19 02:50N 49°11' W 004°29'514.7
2017-Nov-19 02:30N 49°08' W 004°35'814.7
2017-Nov-19 01:55N 49°04' W 004°46'714.5
2017-Nov-19 01:28N 49°01' W 004°55'714.1
2017-Nov-19 00:59N 48°57' W 005°05'713.7
2017-Nov-19 00:30N 48°54' W 005°13'713.2
2017-Nov-19 00:00N 48°51' W 005°22'712.8
2017-Nov-18 23:28N 48°47' W 005°31'612.5
2017-Nov-18 23:00N 48°44' W 005°37'612.5
2017-Nov-18 22:30N 48°38' W 005°42'611.8
2017-Nov-18 22:00N 48°32' W 005°42'712.4
2017-Nov-18 21:29N 48°26' W 005°38'612.4
2017-Nov-18 21:00N 48°21' W 005°34'612.0
2017-Nov-18 20:30N 48°16' W 005°30'612.0
2017-Nov-18 20:00N 48°10' W 005°26'612.0
2017-Nov-18 19:29N 48°05' W 005°22'611.9
2017-Nov-18 19:00N 47°60' W 005°18'611.8
2017-Nov-18 18:30N 47°54' W 005°13'612.1
2017-Nov-18 18:00N 47°49' W 005°09'612.5
2017-Nov-18 17:31N 47°44' W 005°04'612.6
2017-Nov-18 17:00N 47°38' W 005°00'712.9
2017-Nov-18 16:28N 47°32' W 004°56'612.9
2017-Nov-18 16:00N 47°27' W 004°51'713.2
2017-Nov-18 15:31N 47°21' W 004°47'713.4
2017-Nov-18 15:00N 47°15' W 004°43'613.3
2017-Nov-18 14:31N 47°09' W 004°38'713.6
2017-Nov-18 14:00N 47°03' W 004°33'713.4
2017-Nov-18 13:30N 46°57' W 004°28'612.2
2017-Nov-18 13:00N 46°52' W 004°24'914.2
2017-Nov-18 12:24N 46°44' W 004°19'513.4
2017-Nov-18 12:00N 46°39' W 004°16'712.8
2017-Nov-18 11:26N 46°33' W 004°12'814.7
2017-Nov-18 10:55N 46°26' W 004°07'714.2
2017-Nov-18 10:24N 46°19' W 004°03'1114.2
2017-Nov-18 09:37N 46°09' W 003°55'314.4
2017-Nov-18 09:25N 46°06' W 003°54'714.3
2017-Nov-18 08:55N 46°00' W 003°49'8413.3
2017-Nov-18 02:37N 44°45' W 002°56'513.4
2017-Nov-18 02:16N 44°41' W 002°53'1013.6
2017-Nov-18 01:33N 44°32' W 002°47'113.6
2017-Nov-18 01:30N 44°32' W 002°47'713.6
2017-Nov-18 01:00N 44°26' W 002°43'713.4
2017-Nov-18 00:30N 44°20' W 002°38'713.2
2017-Nov-18 00:00N 44°14' W 002°34'713.2
2017-Nov-17 23:30N 44°08' W 002°30'713.2
2017-Nov-17 23:00N 44°02' W 002°26'713.5
2017-Nov-17 22:30N 43°56' W 002°21'713.4
2017-Nov-17 22:00N 43°50' W 002°17'713.2
2017-Nov-17 21:30N 43°44' W 002°13'713.5
2017-Nov-17 21:00N 43°38' W 002°08'713.4
2017-Nov-17 20:30N 43°32' W 002°04'612.9
2017-Nov-17 20:00N 43°27' W 001°60'612.7
2017-Nov-17 19:30N 43°21' W 001°56'2 4.0
2017-Nov-17 18:58N 43°19' W 001°54'0 0.0
2017-Nov-17 18:28N 43°19' W 001°54'0 0.0
2017-Nov-17 17:58N 43°19' W 001°54'0 0.0
2017-Nov-17 17:28N 43°19' W 001°54'0 0.0
2017-Nov-17 16:58N 43°19' W 001°54'0 0.0
2017-Nov-17 16:28N 43°19' W 001°54'0 0.0
2017-Nov-17 15:58N 43°19' W 001°54'0 0.0
2017-Nov-17 15:28N 43°19' W 001°54'0 0.0
2017-Nov-17 14:58N 43°19' W 001°54'0 0.0
2017-Nov-17 14:28N 43°19' W 001°54'0 0.0
2017-Nov-17 13:58N 43°19' W 001°54'0 0.0
2017-Nov-17 13:28N 43°19' W 001°54'0 0.0
2017-Nov-17 12:58N 43°19' W 001°54'0 0.0
2017-Nov-17 12:28N 43°19' W 001°54'0 0.0
2017-Nov-17 11:58N 43°19' W 001°54'0 0.0
2017-Nov-17 11:30N 43°19' W 001°54'1 1.2
2017-Nov-17 11:00N 43°19' W 001°55'510.7
2017-Nov-17 10:30N 43°24' W 001°58'917.0
2017-Nov-17 10:00N 43°31' W 002°04'917.1
2017-Nov-17 09:30N 43°39' W 002°09'816.4
2017-Nov-17 09:00N 43°46' W 002°14'816.4
2017-Nov-17 08:30N 43°54' W 002°20'815.9
2017-Nov-17 08:00N 44°01' W 002°25'815.5
2017-Nov-17 07:30N 44°08' W 002°30'815.4
2017-Nov-17 07:00N 44°14' W 002°35'815.2
2017-Nov-17 06:30N 44°21' W 002°40'815.6
2017-Nov-17 06:01N 44°28' W 002°45'815.9
2017-Nov-17 05:30N 44°35' W 002°51'816.0
2017-Nov-17 05:00N 44°42' W 002°56'15315.6
2017-Nov-16 19:12N 46°57' W 004°38'815.4
2017-Nov-16 18:43N 47°04' W 004°43'315.3
2017-Nov-16 18:30N 47°07' W 004°45'915.3
2017-Nov-16 17:53N 47°15' W 004°53'615.6
2017-Nov-16 17:30N 47°20' W 004°57'815.7
2017-Nov-16 17:01N 47°27' W 005°02'915.9
2017-Nov-16 16:28N 47°35' W 005°08'816.0
2017-Nov-16 16:00N 47°41' W 005°13'815.8
2017-Nov-16 15:30N 47°48' W 005°18'916.1
2017-Nov-16 14:58N 47°56' W 005°23'916.2
2017-Nov-16 14:26N 48°04' W 005°29'715.7
2017-Nov-16 14:00N 48°10' W 005°33'915.5
2017-Nov-16 13:25N 48°18' W 005°39'1115.3
2017-Nov-16 12:43N 48°28' W 005°47'2513.6
2017-Nov-16 10:54N 48°52' W 005°46'2916.9
2017-Nov-16 09:09N 49°09' W 005°09'2817.7
2017-Nov-16 07:35N 49°23' W 004°31'317.8
2017-Nov-16 07:24N 49°24' W 004°27'2717.3
2017-Nov-16 05:51N 49°38' W 003°51'617.6
2017-Nov-16 05:30N 49°41' W 003°43'917.3
2017-Nov-16 04:59N 49°45' W 003°31'817.1
2017-Nov-16 04:30N 49°49' W 003°20'917.1
2017-Nov-16 04:00N 49°53' W 003°09'917.4
2017-Nov-16 03:31N 49°57' W 002°57'917.9
2017-Nov-16 02:59N 49°60' W 002°43'2318.8
2017-Nov-16 01:45N 50°01' W 002°07'520.4
2017-Nov-16 01:30N 49°59' W 001°60'1020.9
2017-Nov-16 01:00N 49°55' W 001°45'1121.5
2017-Nov-16 00:30N 49°51' W 001°29'1122.2
2017-Nov-16 00:00N 49°47' W 001°13'1121.5
2017-Nov-15 23:30N 49°44' W 000°57'1020.6
2017-Nov-15 23:00N 49°40' W 000°43'1019.9
2017-Nov-15 22:30N 49°36' W 000°28'1019.3
2017-Nov-15 22:00N 49°33' W 000°14'918.7
2017-Nov-15 21:30N 49°30' W 000°00'713.1
2017-Nov-15 21:00N 49°28' E 000°09'1 1.7
2017-Nov-15 20:30N 49°29' E 000°10'1 2.0
2017-Nov-15 19:58N 49°28' E 000°12'0 0.0
2017-Nov-15 19:28N 49°28' E 000°12'0 0.0
2017-Nov-15 19:00N 49°28' E 000°12'0 0.0
2017-Nov-15 18:30N 49°28' E 000°12'0 0.0
2017-Nov-15 18:01N 49°28' E 000°12'0 0.0
2017-Nov-15 17:30N 49°28' E 000°12'0 0.0
2017-Nov-15 17:00N 49°28' E 000°12'0 0.0
2017-Nov-15 16:30N 49°28' E 000°12'0 0.0
2017-Nov-15 16:00N 49°28' E 000°12'0 0.0
2017-Nov-15 15:31N 49°28' E 000°12'0 0.0
2017-Nov-15 15:00N 49°28' E 000°12'0 0.0
2017-Nov-15 14:30N 49°28' E 000°12'0 0.0
2017-Nov-15 14:00N 49°28' E 000°12'1 2.1
2017-Nov-15 13:30N 49°29' E 000°10'0 0.0
2017-Nov-15 13:00N 49°29' E 000°10'0 0.3
2017-Nov-15 12:30N 49°28' E 000°10'4 8.1
2017-Nov-15 12:01N 49°29' E 000°04'714.2
2017-Nov-15 11:30N 49°32' W 000°06'5 9.5
2017-Nov-15 11:00N 49°36' W 000°10'4 8.6
2017-Nov-15 10:30N 49°39' W 000°14'4 8.9
2017-Nov-15 10:00N 49°43' W 000°17'4 7.7
2017-Nov-15 09:30N 49°46' W 000°21'4 8.0
2017-Nov-15 09:00N 49°50' W 000°23'611.0
2017-Nov-15 08:30N 49°55' W 000°27'713.5
2017-Nov-15 08:00N 50°01' W 000°31'2413.4
2017-Nov-15 06:14N 50°23' W 000°47'313.2
2017-Nov-15 06:00N 50°25' W 000°49'713.4
2017-Nov-15 05:30N 50°31' W 000°54'713.3
2017-Nov-15 05:00N 50°37' W 000°58'612.6
2017-Nov-15 04:31N 50°43' W 001°03'714.8
2017-Nov-15 04:00N 50°46' W 001°13'612.4
2017-Nov-15 03:31N 50°51' W 001°20'5 6.1
2017-Nov-15 02:40N 50°54' W 001°26'0 0.0
2017-Nov-15 02:13N 50°54' W 001°26'0 0.0
2017-Nov-15 00:58N 50°54' W 001°26'0 0.0
2017-Nov-15 00:19N 50°54' W 001°26'0 0.0
2017-Nov-15 00:00N 50°54' W 001°26'0 0.0
2017-Nov-14 23:30N 50°54' W 001°26'0 0.0
2017-Nov-14 23:00N 50°54' W 001°26'0 0.0
2017-Nov-14 22:30N 50°54' W 001°26'0 0.0
2017-Nov-14 22:00N 50°54' W 001°26'0 0.0
2017-Nov-14 21:30N 50°54' W 001°26'0 0.0
2017-Nov-14 20:59N 50°54' W 001°26'0 0.2
2017-Nov-14 20:29N 50°54' W 001°25'1 1.8
2017-Nov-14 19:42N 50°53' W 001°24'0 0.0
2017-Nov-14 19:30N 50°53' W 001°24'0 0.0
2017-Nov-14 18:23N 50°53' W 001°24'0 0.0
2017-Nov-14 18:00N 50°53' W 001°24'0 0.0
2017-Nov-14 17:27N 50°53' W 001°24'0 0.7
2017-Nov-14 16:59N 50°53' W 001°24'510.9
2017-Nov-14 16:30N 50°49' W 001°18'713.8
2017-Nov-14 16:00N 50°46' W 001°09'713.4
2017-Nov-14 15:30N 50°43' W 000°59'714.8
2017-Nov-14 15:01N 50°39' W 000°49'816.6
2017-Nov-14 14:31N 50°37' W 000°37'917.6
2017-Nov-14 14:01N 50°35' W 000°23'918.2
2017-Nov-14 13:31N 50°33' W 000°09'918.3
2017-Nov-14 13:01N 50°34' E 000°05'918.6
2017-Nov-14 12:31N 50°36' E 000°20'918.5
2017-Nov-14 12:01N 50°38' E 000°34'918.1
2017-Nov-14 11:31N 50°43' E 000°46'917.7
2017-Nov-14 11:00N 50°49' E 000°57'917.0
2017-Nov-14 10:30N 50°54' E 001°07'816.3
2017-Nov-14 10:01N 50°59' E 001°17'815.6
2017-Nov-14 09:31N 51°04' E 001°27'815.2
2017-Nov-14 09:01N 51°08' E 001°37'815.4
2017-Nov-14 08:31N 51°13' E 001°46'816.5
2017-Nov-14 08:01N 51°20' E 001°54'815.1
2017-Nov-14 07:31N 51°24' E 002°04'917.3
2017-Nov-14 07:00N 51°20' E 002°17'917.9
2017-Nov-14 06:30N 51°23' E 002°31'917.5
2017-Nov-14 06:00N 51°22' E 002°44'611.4
2017-Nov-14 05:30N 51°23' E 002°54'917.9
2017-Nov-14 05:00N 51°24' E 003°08'510.0
2017-Nov-14 04:30N 51°20' E 003°13'0 0.0
2017-Nov-14 04:01N 51°20' E 003°13'0 0.0
2017-Nov-14 03:30N 51°20' E 003°13'1 1.1
2017-Nov-14 03:01N 51°19' E 003°13'0 0.1
2017-Nov-14 02:29N 51°20' E 003°13'0 0.0
2017-Nov-14 01:59N 51°20' E 003°13'0 0.0
2017-Nov-14 01:29N 51°20' E 003°13'0 0.0
2017-Nov-14 00:59N 51°19' E 003°13'0 0.0
2017-Nov-14 00:29N 51°20' E 003°13'0 0.0
2017-Nov-13 23:59N 51°20' E 003°13'0 0.0
2017-Nov-13 23:29N 51°19' E 003°13'0 0.0
2017-Nov-13 22:59N 51°19' E 003°13'0 0.0
2017-Nov-13 22:29N 51°20' E 003°13'0 0.0
2017-Nov-13 21:59N 51°20' E 003°13'132 6.6
2017-Nov-13 02:00N 50°19' E 000°07'611.7
2017-Nov-13 01:30N 50°17' W 000°02'611.5
2017-Nov-13 01:00N 50°16' W 000°10'611.3
2017-Nov-13 00:30N 50°15' W 000°19'611.1
2017-Nov-12 23:58N 50°13' W 000°28'510.9
2017-Nov-12 23:30N 50°12' W 000°36'610.7
2017-Nov-12 22:59N 50°10' W 000°44'166 8.5
2017-Nov-12 03:29N 49°06' W 004°41'4 8.1
2017-Nov-12 03:00N 49°03' W 004°46'14 8.5
2017-Nov-12 01:23N 48°58' W 005°05'3 8.8
2017-Nov-12 01:00N 48°56' W 005°09'610.4
2017-Nov-12 00:24N 48°53' W 005°18'513.0
2017-Nov-12 00:00N 48°50' W 005°25'713.2
2017-Nov-11 23:26N 48°46' W 005°34'812.9
2017-Nov-11 22:47N 48°39' W 005°41'413.4
2017-Nov-11 22:31N 48°36' W 005°43'611.4
2017-Nov-11 21:57N 48°30' W 005°40'511.8
2017-Nov-11 21:31N 48°25' W 005°37'611.1
2017-Nov-11 20:58N 48°20' W 005°33'4 9.6
2017-Nov-11 20:29N 48°16' W 005°30'5 9.1
2017-Nov-11 19:59N 48°12' W 005°26'5 9.7
2017-Nov-11 19:30N 48°08' W 005°23'5 9.5
2017-Nov-11 19:00N 48°03' W 005°20'5 9.5
2017-Nov-11 18:30N 47°59' W 005°16'5 9.2
2017-Nov-11 18:01N 47°55' W 005°13'5 9.4
2017-Nov-11 17:30N 47°51' W 005°10'4 9.2
2017-Nov-11 17:00N 47°47' W 005°07'4 8.9
2017-Nov-11 16:31N 47°43' W 005°04'5 9.0
2017-Nov-11 15:59N 47°39' W 005°02'5 8.6
2017-Nov-11 15:27N 47°34' W 004°59'12 8.8
2017-Nov-11 14:06N 47°24' W 004°51'1 8.5
2017-Nov-11 13:56N 47°22' W 004°50'6 8.9
2017-Nov-11 13:13N 47°17' W 004°46'3 9.3
2017-Nov-11 12:56N 47°14' W 004°44'3011.4
2017-Nov-11 10:15N 46°47' W 004°24'614.7
2017-Nov-11 09:51N 46°42' W 004°19'14415.4
2017-Nov-11 00:30N 44°33' W 002°47'815.9
2017-Nov-11 00:00N 44°26' W 002°41'816.0
2017-Nov-10 23:30N 44°19' W 002°36'815.8
2017-Nov-10 23:00N 44°12' W 002°31'815.8
2017-Nov-10 22:30N 44°05' W 002°27'815.7
2017-Nov-10 22:00N 43°58' W 002°22'815.5
2017-Nov-10 21:30N 43°51' W 002°17'815.4
2017-Nov-10 21:00N 43°44' W 002°12'815.4
2017-Nov-10 20:30N 43°37' W 002°08'815.4
2017-Nov-10 20:00N 43°30' W 002°02'815.5
2017-Nov-10 19:30N 43°24' W 001°57'5 9.7
2017-Nov-10 19:00N 43°19' W 001°54'0 0.3
2017-Nov-10 18:28N 43°19' W 001°54'0 0.0
2017-Nov-10 17:58N 43°19' W 001°54'0 0.0
2017-Nov-10 17:25N 43°19' W 001°54'0 0.0
2017-Nov-10 16:58N 43°19' W 001°54'0 0.0
2017-Nov-10 16:28N 43°19' W 001°54'0 0.0
2017-Nov-10 15:58N 43°19' W 001°54'0 0.0
2017-Nov-10 15:28N 43°19' W 001°54'0 0.0
2017-Nov-10 14:58N 43°19' W 001°54'0 0.0
2017-Nov-10 14:28N 43°19' W 001°54'0 0.0
2017-Nov-10 13:58N 43°19' W 001°54'0 0.0
2017-Nov-10 13:19N 43°19' W 001°54'0 0.0
2017-Nov-10 12:58N 43°19' W 001°54'0 0.0
2017-Nov-10 12:28N 43°19' W 001°54'0 0.0
2017-Nov-10 11:58N 43°19' W 001°54'0 0.0
2017-Nov-10 11:30N 43°19' W 001°54'1 2.8
2017-Nov-10 11:00N 43°20' W 001°56'510.3
2017-Nov-10 10:30N 43°25' W 001°59'611.9
2017-Nov-10 10:00N 43°30' W 002°02'612.6
2017-Nov-10 09:30N 43°36' W 002°06'612.9
2017-Nov-10 09:00N 43°41' W 002°10'613.0
2017-Nov-10 08:30N 43°47' W 002°15'612.9
2017-Nov-10 08:00N 43°53' W 002°19'612.8
2017-Nov-10 07:30N 43°58' W 002°23'612.8
2017-Nov-10 07:00N 44°04' W 002°28'612.7
2017-Nov-10 06:30N 44°10' W 002°32'613.0
2017-Nov-10 06:00N 44°15' W 002°36'612.4
2017-Nov-10 05:30N 44°21' W 002°40'713.4
2017-Nov-10 05:00N 44°27' W 002°44'  

Dump ship's entire track history